Time;durP1;ratioP1;P1;durP2;ratioP2;P2;SDS_P1;SDS_P2;PMS_P1;PMS_P2;Temp;Humidity;BMP_temperature;BMP_pressure;BME280_temperature;BME280_humidity;BME280_pressure;Samples;Min_cycle;Max_cycle;Signal;HPM_P1;HPM_P2
2022/08/12 00:43:43;;;;;;;;;;;;;;;23.82;34.73;100793.28;5007620;28;7223;-78
2022/08/12 00:48:53;;;;;;;;;;;;;;;23.66;34.76;100798.56;4980678;28;7142;-78
2022/08/12 00:51:20;;;;;;;;;;;;;;;23.57;35.08;100799.41;4998903;28;7315;-78
2022/08/12 00:53:46;;;;;;;;;;;;;;;23.51;35.31;100799.38;5013347;28;7040;-79
2022/08/12 00:56:12;;;;;;;;;;;;;;;23.43;36.26;100794.16;5013726;28;6807;-78
2022/08/12 00:58:49;;;;;;;;;;;;;;;23.35;35.98;100803.72;5016101;28;7279;-78
2022/08/12 01:01:16;;;;;;;;;;;;;;;23.27;36.06;100808.03;4975423;28;6955;-78
2022/08/12 01:12:07;;;;;;;;;;;;;;;22.89;37.22;100815.81;4977250;28;6804;-78
2022/08/12 01:14:33;;;;;;;;;;;;;;;22.83;36.77;100812.28;4982225;28;6891;-79
2022/08/12 01:16:59;;;;;;;;;;;;;;;22.78;37.22;100814.03;4998738;28;6987;-78
2022/08/12 01:19:25;;;;;;;;;;;;;;;22.72;37.65;100814.88;5015760;28;6950;-78
2022/08/12 01:22:32;;;;;;;;;;;;;;;22.67;37.31;100819.19;5014608;28;6784;-78
2022/08/12 01:25:27;;;;;;;;;;;;;;;22.58;37.35;100810.44;4967914;28;9558;-78
2022/08/12 01:27:57;;;;;;;;;;;;;;;22.56;37.24;100817.41;4976661;28;7295;-78
2022/08/12 01:30:27;;;;;;;;;;;;;;;22.53;37.45;100821.72;4975955;28;6840;-78
2022/08/12 01:32:58;;;;;;;;;;;;;;;22.47;37.38;100818.22;5009609;28;7048;-78
2022/08/12 01:35:29;;;;;;;;;;;;;;;22.48;37.17;100821.66;4982541;28;7262;-78
2022/08/12 01:38:07;;;;;;;;;;;;;;;22.42;37.22;100817.28;5022998;28;11216;-78
2022/08/12 01:40:36;;;;;;;;;;;;;;;22.41;37.69;100814.69;5013458;28;7149;-78
2022/08/12 01:43:08;;;;;;;;;;;;;;;22.38;37.57;100812.03;4973048;28;6848;-78
2022/08/12 01:45:46;;;;;;;;;;;;;;;22.37;37.77;100810.31;5011197;28;7557;-78
2022/08/12 01:48:56;;;;;;;;;;;;;;;22.34;37.48;100812.03;5010177;28;6911;-78
2022/08/12 01:51:42;;;;;;;;;;;;;;;22.30;38.02;100814.63;4978124;28;7301;-78
2022/08/12 01:54:18;;;;;;;;;;;;;;;22.26;37.96;100811.13;5007914;28;7008;-78
2022/08/12 01:56:51;;;;;;;;;;;;;;;22.24;38.42;100806.75;5013391;28;7145;-78
2022/08/12 01:59:49;;;;;;;;;;;;;;;22.20;38.56;100816.28;5010508;28;7135;-78
2022/08/12 02:02:29;;;;;;;;;;;;;;;22.14;38.85;100800.59;4999013;28;8405;-78
2022/08/12 02:11:59;;;;;;;;;;;;;;;21.91;39.10;100806.50;4978556;28;7697;-78
2022/08/12 02:14:53;;;;;;;;;;;;;;;21.84;38.93;100809.97;4981831;28;7268;-78
2022/08/12 02:17:47;;;;;;;;;;;;;;;21.77;39.15;100803.78;4997507;28;8437;-78
2022/08/12 02:20:37;;;;;;;;;;;;;;;21.70;38.89;100808.09;4982730;28;7920;-78
2022/08/12 02:23:09;;;;;;;;;;;;;;;21.63;39.38;100812.34;5007293;28;7021;-78
2022/08/12 02:25:44;;;;;;;;;;;;;;;21.59;39.12;100815.81;4976781;28;7407;-78
2022/08/12 02:28:10;;;;;;;;;;;;;;;21.56;39.48;100813.16;4977131;28;7410;-78
2022/08/12 02:30:39;;;;;;;;;;;;;;;21.53;39.70;100809.66;5009794;28;6955;-78
2022/08/12 02:33:05;;;;;;;;;;;;;;;21.50;40.17;100807.91;4975750;28;6852;-78
2022/08/12 02:35:35;;;;;;;;;;;;;;;21.46;40.52;100806.13;5010533;28;6804;-78
2022/08/12 02:38:09;;;;;;;;;;;;;;;21.43;40.49;100804.34;5017550;28;6983;-78
2022/08/12 02:40:44;;;;;;;;;;;;;;;21.39;40.60;100802.56;5015384;28;6799;-78
2022/08/12 02:43:44;;;;;;;;;;;;;;;21.35;40.46;100800.81;5015293;28;6875;-78
2022/08/12 02:46:14;;;;;;;;;;;;;;;21.31;40.35;100801.63;4986689;28;6966;-78
2022/08/12 02:48:59;;;;;;;;;;;;;;;21.29;40.42;100798.13;4970029;28;7090;-78
2022/08/12 02:51:37;;;;;;;;;;;;;;;21.27;40.21;100805.06;5013600;28;8081;-78
2022/08/12 02:54:06;;;;;;;;;;;;;;;21.25;39.95;100810.25;5014447;28;7219;-78
2022/08/12 02:56:41;;;;;;;;;;;;;;;21.24;40.26;100818.94;5013756;28;6852;-79
2022/08/12 02:59:10;;;;;;;;;;;;;;;21.21;40.38;100809.34;4990057;28;6792;-79
2022/08/12 03:01:55;;;;;;;;;;;;;;;21.22;40.08;100815.44;4993614;28;9471;-79
2022/08/12 03:04:46;;;;;;;;;;;;;;;21.21;40.33;100811.97;4991909;28;7006;-78
2022/08/12 03:07:43;;;;;;;;;;;;;;;21.21;40.11;100804.13;5003190;28;7023;-78
2022/08/12 03:10:11;;;;;;;;;;;;;;;21.22;40.33;100805.03;4999293;28;8789;-78
2022/08/12 03:12:47;;;;;;;;;;;;;;;21.21;40.42;100798.94;5014629;28;7297;-79
2022/08/12 03:15:17;;;;;;;;;;;;;;;21.20;40.78;100802.41;5014931;28;6788;-79
2022/08/12 03:17:43;;;;;;;;;;;;;;;21.18;40.68;100809.31;5014209;28;7200;-78
2022/08/12 03:20:13;;;;;;;;;;;;;;;21.16;40.54;100800.63;4982807;28;6776;-79
2022/08/12 03:22:39;;;;;;;;;;;;;;;21.15;40.46;100798.88;5012796;28;6831;-78
2022/08/12 03:25:07;;;;;;;;;;;;;;;21.15;40.88;100798.88;5015968;28;6968;-78
2022/08/12 03:27:54;;;;;;;;;;;;;;;21.15;40.88;100798.00;4986709;28;7919;-78
2022/08/12 03:30:27;;;;;;;;;;;;;;;21.16;41.22;100799.72;4993392;28;8797;-78
2022/08/12 03:32:55;;;;;;;;;;;;;;;21.15;40.95;100798.88;4986210;28;6966;-78
2022/08/12 03:35:29;;;;;;;;;;;;;;;21.15;41.55;100793.66;4978602;28;7154;-78
2022/08/12 03:38:07;;;;;;;;;;;;;;;21.13;41.45;100795.34;4985491;28;7354;-78
2022/08/12 04:01:26;;;;;;;;;;;;;;;21.03;42.01;100785.69;4983803;28;6987;-76
2022/08/12 04:03:51;;;;;;;;;;;;;;;21.04;42.31;100787.44;5010043;28;7241;-76
2022/08/12 04:06:20;;;;;;;;;;;;;;;21.01;41.76;100790.91;5008326;28;6771;-76
2022/08/12 04:08:52;;;;;;;;;;;;;;;21.01;42.12;100793.53;5014677;28;7207;-76
2022/08/12 04:14:12;;;;;;;;;;;;;;;21.08;41.71;100797.06;4982990;28;6796;-76
2022/08/12 04:16:39;;;;;;;;;;;;;;;21.15;42.04;100801.47;5012851;28;7155;-77
2022/08/12 04:19:06;;;;;;;;;;;;;;;21.26;41.50;100804.19;5009479;28;7182;-76
2022/08/12 04:21:33;;;;;;;;;;;;;;;21.38;41.27;100806.06;5015411;28;6784;-76
2022/08/12 04:24:00;;;;;;;;;;;;;;;21.50;41.46;100805.31;5011565;28;7163;-76
2022/08/12 04:26:29;;;;;;;;;;;;;;;21.59;41.00;100799.28;4984931;28;7282;-77
2022/08/12 04:28:58;;;;;;;;;;;;;;;21.68;41.16;100804.59;4978075;28;6976;-77
2022/08/12 04:31:32;;;;;;;;;;;;;;;21.74;40.89;100790.75;4976788;28;8276;-77
2022/08/12 04:33:58;;;;;;;;;;;;;;;21.78;40.89;100790.78;5013737;28;7108;-77
2022/08/12 04:36:24;;;;;;;;;;;;;;;21.83;40.93;100795.19;4978512;28;7892;-77
2022/08/12 04:38:52;;;;;;;;;;;;;;;21.88;40.82;100798.69;4995488;28;7081;-76
2022/08/12 04:41:19;;;;;;;;;;;;;;;21.91;40.66;100796.97;4981682;28;6851;-77
2022/08/12 04:43:47;;;;;;;;;;;;;;;21.93;40.93;100799.59;4999423;28;7182;-77
2022/08/12 04:46:14;;;;;;;;;;;;;;;21.95;40.45;100803.09;4977048;28;7227;-76
2022/08/12 04:48:40;;;;;;;;;;;;;;;21.97;40.84;100796.13;5028657;28;7427;-76
2022/08/12 04:51:06;;;;;;;;;;;;;;;21.99;40.76;100802.22;4987491;28;7369;-77
2022/08/12 04:53:32;;;;;;;;;;;;;;;22.01;40.82;100791.81;5010074;28;6951;-76
2022/08/12 04:55:59;;;;;;;;;;;;;;;22.05;40.60;100796.19;4980933;28;6864;-77
2022/08/12 04:58:25;;;;;;;;;;;;;;;22.09;40.94;100810.13;4992497;28;8452;-76
2022/08/12 05:00:52;;;;;;;;;;;;;;;22.11;40.86;100805.78;4980819;28;6807;-76
2022/08/12 05:03:17;;;;;;;;;;;;;;;22.13;40.77;100809.31;5000295;28;6972;-76
2022/08/12 05:05:43;;;;;;;;;;;;;;;22.14;40.64;100803.22;5010030;28;7003;-77
2022/08/12 05:08:15;;;;;;;;;;;;;;;22.18;40.94;100807.56;5010394;28;6954;-77
2022/08/12 05:10:46;;;;;;;;;;;;;;;22.26;40.81;100805.88;4981128;28;7002;-76
2022/08/12 05:13:17;;;;;;;;;;;;;;;22.34;41.24;100806.81;4982268;28;7235;-77
2022/08/12 05:15:44;;;;;;;;;;;;;;;22.43;41.07;100794.69;4983837;28;6965;-77
2022/08/12 05:18:11;;;;;;;;;;;;;;;22.56;41.05;100803.47;4977734;28;6788;-76
2022/08/12 05:20:38;;;;;;;;;;;;;;;22.66;40.94;100796.53;4974751;28;7060;-76
2022/08/12 05:23:13;;;;;;;;;;;;;;;22.82;40.92;100792.25;5026606;28;6959;-77
2022/08/12 05:25:55;;;;;;;;;;;;;;;22.98;40.71;100791.44;4977822;28;7214;-77
2022/08/12 05:28:23;;;;;;;;;;;;;;;23.19;40.20;100794.97;4992345;28;7289;-77
2022/08/12 05:30:49;;;;;;;;;;;;;;;23.40;39.92;100806.34;5009929;28;7191;-78
2022/08/12 05:33:15;;;;;;;;;;;;;;;23.61;39.30;100802.91;5005628;28;7612;-77
2022/08/12 05:35:44;;;;;;;;;;;;;;;23.83;39.32;100808.13;5009066;28;6783;-77
2022/08/12 05:40:59;;;;;;;;;;;;;;;24.26;39.11;100807.22;5002500;28;6807;-77
2022/08/12 05:43:25;;;;;;;;;;;;;;;24.45;38.59;100813.28;4998179;28;8822;-77
2022/08/12 05:45:51;;;;;;;;;;;;;;;24.63;38.25;100817.59;5012919;28;6868;-77
2022/08/12 05:48:18;;;;;;;;;;;;;;;24.76;38.13;100818.41;5015436;28;6843;-77
2022/08/12 05:50:45;;;;;;;;;;;;;;;24.84;37.41;100818.41;4966417;28;8420;-78
2022/08/12 05:53:12;;;;;;;;;;;;;;;24.88;37.64;100814.00;5010009;28;8024;-77
2022/08/12 05:55:38;;;;;;;;;;;;;;;24.90;37.35;100820.13;4975697;28;7128;-78
2022/08/12 05:58:04;;;;;;;;;;;;;;;24.89;36.49;100813.13;5011489;28;6979;-78
2022/08/12 06:00:31;;;;;;;;;;;;;;;24.88;36.89;100811.41;5011783;28;6804;-77
2022/08/12 06:03:01;;;;;;;;;;;;;;;24.87;36.71;100813.16;5012056;28;6985;-78
2022/08/12 06:05:34;;;;;;;;;;;;;;;24.88;36.37;100819.25;4993185;28;6982;-77
2022/08/12 06:08:07;;;;;;;;;;;;;;;24.87;36.33;100817.53;4976933;28;6872;-77
2022/08/12 06:10:35;;;;;;;;;;;;;;;24.87;36.34;100813.16;5011151;28;7009;-77
2022/08/12 06:13:05;;;;;;;;;;;;;;;24.88;36.50;100814.00;4984504;28;6994;-77
2022/08/12 06:15:36;;;;;;;;;;;;;;;24.89;36.85;100810.50;5012607;28;6799;-77
2022/08/12 06:18:08;;;;;;;;;;;;;;;24.90;36.60;100813.13;4977189;28;6859;-78
2022/08/12 06:20:35;;;;;;;;;;;;;;;24.93;36.75;100818.34;4970601;28;7230;-77
2022/08/12 06:23:02;;;;;;;;;;;;;;;24.95;36.34;100811.34;4984185;28;7888;-79
2022/08/12 06:25:28;;;;;;;;;;;;;;;25.00;36.06;100819.19;5010618;28;7259;-77
2022/08/12 06:27:57;;;;;;;;;;;;;;;25.03;36.02;100824.44;5029148;28;7082;-78
2022/08/12 06:30:25;;;;;;;;;;;;;;;25.07;35.82;100810.41;5011546;28;6840;-77
2022/08/12 06:32:51;;;;;;;;;;;;;;;25.12;35.81;100813.00;5013170;28;6784;-78
2022/08/12 06:35:19;;;;;;;;;;;;;;;25.19;35.94;100819.97;4999729;28;7158;-77
2022/08/12 06:37:50;;;;;;;;;;;;;;;25.29;36.12;100812.03;5014272;28;7680;-77
2022/08/12 06:42:46;;;;;;;;;;;;;;;25.36;35.60;100811.97;4977538;28;6796;-77
2022/08/12 06:43:07;;;;;;;;;;;;;;;25.48;35.55;100804.91;5004943;28;6835;-78
2022/08/12 06:45:37;;;;;;;;;;;;;;;25.57;35.38;100807.47;5015546;28;7400;-77
2022/08/12 06:48:07;;;;;;;;;;;;;;;25.69;35.37;100816.13;5012149;28;6946;-78
2022/08/12 06:50:32;;;;;;;;;;;;;;;25.78;35.07;100802.94;4998219;28;8537;-78
2022/08/12 06:52:59;;;;;;;;;;;;;;;25.87;34.65;100805.47;5006391;28;7175;-78
2022/08/12 06:55:25;;;;;;;;;;;;;;;26.00;34.51;100805.38;4983372;28;8072;-78
2022/08/12 06:58:10;;;;;;;;;;;;;;;26.10;34.17;100804.41;5012974;28;6953;-78
2022/08/12 07:00:36;;;;;;;;;;;;;;;26.21;34.42;100804.28;5000230;28;7018;-77
2022/08/12 07:03:04;;;;;;;;;;;;;;;26.32;34.30;100796.31;5009916;28;6792;-78
2022/08/12 07:05:31;;;;;;;;;;;;;;;26.43;33.93;100797.03;5011651;28;6953;-77
2022/08/12 07:08:04;;;;;;;;;;;;;;;26.55;33.81;100805.66;5013753;28;6964;-79
2022/08/12 07:10:32;;;;;;;;;;;;;;;26.64;33.32;100795.03;5013067;28;7280;-78
2022/08/12 07:13:00;;;;;;;;;;;;;;;26.73;33.46;100800.19;5010792;28;6803;-78
2022/08/12 07:15:29;;;;;;;;;;;;;;;26.84;33.28;100801.78;4977961;28;7073;-77
2022/08/12 07:17:59;;;;;;;;;;;;;;;26.93;32.72;100804.34;5016333;28;6848;-78
2022/08/12 07:20:30;;;;;;;;;;;;;;;27.02;32.46;100790.19;4986738;28;7896;-77
2022/08/12 07:22:58;;;;;;;;;;;;;;;27.10;32.37;100798.84;5030322;28;7067;-79
2022/08/12 07:25:30;;;;;;;;;;;;;;;27.20;32.15;100811.88;5013795;28;6780;-79
2022/08/12 07:28:02;;;;;;;;;;;;;;;27.27;31.95;100809.13;5014897;28;7208;-78
2022/08/12 07:30:31;;;;;;;;;;;;;;;27.37;31.73;100809.81;4969942;28;9155;-78
2022/08/12 07:33:00;;;;;;;;;;;;;;;27.48;31.88;100814.09;4994444;28;8104;-78
2022/08/12 07:35:28;;;;;;;;;;;;;;;27.58;31.57;100821.81;5002829;28;6978;-79
2022/08/12 07:37:56;;;;;;;;;;;;;;;27.69;31.32;100815.50;4985540;28;6976;-77
2022/08/12 07:40:24;;;;;;;;;;;;;;;27.80;31.29;100817.97;5029276;28;7007;-77
2022/08/12 07:42:51;;;;;;;;;;;;;;;27.91;31.32;100817.75;5014716;28;7042;-79
2022/08/12 07:45:19;;;;;;;;;;;;;;;28.01;30.98;100814.09;5028380;28;7154;-79
2022/08/12 07:47:46;;;;;;;;;;;;;;;28.10;30.91;100813.91;5015764;28;6942;-79
2022/08/12 07:50:15;;;;;;;;;;;;;;;28.22;31.25;100814.59;5019327;28;6977;-78
2022/08/12 07:52:45;;;;;;;;;;;;;;;28.33;30.88;100817.00;5014978;28;7231;-79
2022/08/12 07:55:15;;;;;;;;;;;;;;;28.44;30.39;100806.28;5013171;28;6804;-78
2022/08/12 07:57:53;;;;;;;;;;;;;;;28.55;30.03;100817.47;4979274;28;6968;-79
2022/08/12 08:00:19;;;;;;;;;;;;;;;28.64;29.77;100816.41;4985008;28;7036;-77
2022/08/12 08:02:45;;;;;;;;;;;;;;;28.75;29.86;100822.31;4995334;28;7118;-78
2022/08/12 08:05:11;;;;;;;;;;;;;;;28.89;29.56;100824.69;5014445;28;6776;-77
2022/08/12 08:07:37;;;;;;;;;;;;;;;29.00;29.62;100826.22;4981100;28;6807;-79
2022/08/12 08:10:09;;;;;;;;;;;;;;;29.10;29.50;100828.59;5014795;28;7960;-78
2022/08/12 08:12:57;;;;;;;;;;;;;;;29.21;28.96;100831.00;4984531;28;6992;-79
2022/08/12 08:15:33;;;;;;;;;;;;;;;29.32;29.11;100821.97;4986241;28;7210;-78
2022/08/12 08:18:04;;;;;;;;;;;;;;;29.39;28.54;100827.06;4977998;28;7268;-79
2022/08/12 08:20:45;;;;;;;;;;;;;;;29.54;28.69;100826.75;4998181;28;7025;-77
2022/08/12 08:23:17;;;;;;;;;;;;;;;29.63;28.23;100823.88;5028020;28;6991;-78
2022/08/12 08:25:44;;;;;;;;;;;;;;;29.71;28.03;100816.63;5014782;28;7203;-78
2022/08/12 08:28:15;;;;;;;;;;;;;;;29.82;27.63;100812.84;4979362;28;6800;-78
2022/08/12 08:30:44;;;;;;;;;;;;;;;29.93;27.79;100816.06;4979126;28;6892;-78
2022/08/12 08:33:12;;;;;;;;;;;;;;;30.03;27.28;100814.06;5012146;28;7697;-77
2022/08/12 08:35:41;;;;;;;;;;;;;;;30.14;27.68;100813.81;5013937;28;6856;-79
2022/08/12 08:38:16;;;;;;;;;;;;;;;30.22;26.93;100811.81;5014935;28;6800;-78
2022/08/12 08:43:31;;;;;;;;;;;;;;;30.43;27.42;100809.50;5009035;28;6796;-78
2022/08/12 08:45:57;;;;;;;;;;;;;;;30.53;27.09;100813.59;5014673;28;7086;-77
2022/08/12 08:48:23;;;;;;;;;;;;;;;30.65;27.26;100814.16;5011542;28;7020;-78
2022/08/12 08:50:51;;;;;;;;;;;;;;;30.80;27.48;100816.34;5012945;28;6989;-76
2022/08/12 08:53:17;;;;;;;;;;;;;;;30.97;26.95;100818.50;4968493;28;7483;-77
2022/08/12 08:55:43;;;;;;;;;;;;;;;31.16;26.79;100812.63;5012906;28;7002;-78
2022/08/12 08:58:11;;;;;;;;;;;;;;;31.36;26.52;100814.63;5015008;28;7816;-78
2022/08/12 09:00:38;;;;;;;;;;;;;;;31.63;26.43;100811.13;4986065;28;6958;-78
2022/08/12 09:03:06;;;;;;;;;;;;;;;31.95;26.13;100812.69;5010131;28;6796;-78
2022/08/12 09:05:32;;;;;;;;;;;;;;;32.34;25.78;100806.00;5014604;28;7291;-78
2022/08/12 09:08:03;;;;;;;;;;;;;;;32.81;24.96;100810.44;4993939;28;7328;-78
2022/08/12 09:10:30;;;;;;;;;;;;;;;33.39;24.49;100809.03;5012113;28;6784;-79
2022/08/12 09:15:41;;;;;;;;;;;;;;;34.84;22.85;100796.56;5008624;28;6784;-78
2022/08/12 09:18:09;;;;;;;;;;;;;;;35.41;22.60;100792.91;4992970;28;6982;-78
2022/08/12 09:20:38;;;;;;;;;;;;;;;35.95;21.56;100791.97;5002129;28;7287;-78
2022/08/12 09:23:10;;;;;;;;;;;;;;;36.47;21.91;100787.44;4978969;28;6796;-79
2022/08/12 09:25:40;;;;;;;;;;;;;;;37.00;20.46;100795.22;4979571;28;7231;-78
2022/08/12 09:28:10;;;;;;;;;;;;;;;37.52;20.66;100792.16;4993681;28;6983;-77
2022/08/12 09:30:45;;;;;;;;;;;;;;;38.04;19.85;100789.13;4983654;28;6808;-78
2022/08/12 09:33:11;;;;;;;;;;;;;;;38.61;19.50;100790.03;4981790;28;7215;-78
2022/08/12 09:35:42;;;;;;;;;;;;;;;39.16;19.13;100788.25;5030405;28;7406;-79
2022/08/12 09:38:16;;;;;;;;;;;;;;;39.63;18.52;100797.66;5010935;28;8072;-79
2022/08/12 09:40:43;;;;;;;;;;;;;;;39.91;18.20;100785.03;5012702;28;7036;-78
2022/08/12 09:45:56;;;;;;;;;;;;;;;40.60;17.63;100787.25;4985382;28;6808;-78
2022/08/12 09:48:21;;;;;;;;;;;;;;;40.87;17.43;100783.53;4982815;28;7044;-78
2022/08/12 09:50:49;;;;;;;;;;;;;;;41.09;17.02;100774.72;5028785;28;6828;-79
2022/08/12 09:53:23;;;;;;;;;;;;;;;41.32;16.55;100777.47;5012583;28;6991;-78
2022/08/12 09:55:56;;;;;;;;;;;;;;;41.53;16.57;100784.00;5012209;28;9034;-78
2022/08/12 09:58:27;;;;;;;;;;;;;;;41.76;16.27;100779.56;4969073;28;7166;-78
2022/08/12 10:01:03;;;;;;;;;;;;;;;42.07;16.00;100774.44;5012981;28;6976;-79
2022/08/12 10:03:35;;;;;;;;;;;;;;;42.29;15.46;100767.31;5015342;28;8021;-78
2022/08/12 10:06:05;;;;;;;;;;;;;;;42.31;15.36;100768.06;4974808;28;7184;-78
2022/08/12 10:08:34;;;;;;;;;;;;;;;42.38;15.23;100752.25;4993875;28;6931;-78
2022/08/12 10:13:48;;;;;;;;;;;;;;;42.84;15.38;100747.59;5007846;28;6808;-78
2022/08/12 10:16:16;;;;;;;;;;;;;;;42.97;14.76;100747.44;4996720;28;6987;-78
2022/08/12 10:18:52;;;;;;;;;;;;;;;43.01;14.46;100744.34;4984291;28;7197;-77
2022/08/12 10:21:35;;;;;;;;;;;;;;;43.01;14.38;100738.97;4975285;28;7217;-79
2022/08/12 10:24:04;;;;;;;;;;;;;;;42.87;14.51;100739.22;4975023;28;6812;-78
2022/08/12 10:32:02;;;;;;;;;;;;;;;42.86;14.18;100732.13;4977485;28;6792;-79
2022/08/12 10:34:29;;;;;;;;;;;;;;;42.85;13.89;100722.34;5015028;28;6812;-79
2022/08/12 10:36:58;;;;;;;;;;;;;;;42.82;14.22;100730.69;4981182;28;7208;-78
2022/08/12 10:39:31;;;;;;;;;;;;;;;42.90;14.17;100720.13;4983241;28;6796;-78
2022/08/12 10:44:49;;;;;;;;;;;;;;;42.85;13.88;100719.66;4980022;28;7591;-79
2022/08/12 10:47:16;;;;;;;;;;;;;;;42.79;13.91;100709.41;4981972;28;7814;-77
2022/08/12 10:49:43;;;;;;;;;;;;;;;42.87;13.48;100712.28;5011512;28;7811;-77
2022/08/12 10:52:09;;;;;;;;;;;;;;;42.96;13.79;100703.44;5016800;28;7088;-80
2022/08/12 10:54:36;;;;;;;;;;;;;;;43.11;13.69;100709.34;5016395;28;8895;-81
2022/08/12 10:57:01;;;;;;;;;;;;;;;43.27;13.37;100706.22;5006146;28;8472;-81
2022/08/12 10:59:28;;;;;;;;;;;;;;;43.44;13.38;100706.59;5016779;28;7008;-80
2022/08/12 11:01:55;;;;;;;;;;;;;;;43.74;13.52;100702.16;5032262;28;7224;-79
2022/08/12 11:04:22;;;;;;;;;;;;;;;44.05;13.12;100706.69;4985862;28;7188;-79
2022/08/12 11:06:49;;;;;;;;;;;;;;;44.17;12.77;100702.06;4986505;28;6870;-80
2022/08/12 11:09:17;;;;;;;;;;;;;;;44.19;12.43;100711.75;4985116;28;6864;-78
2022/08/12 11:11:47;;;;;;;;;;;;;;;44.13;12.43;100705.00;5013915;28;6840;-79
2022/08/12 11:14:26;;;;;;;;;;;;;;;44.09;12.40;100694.63;5031422;28;7245;-77
2022/08/12 11:16:56;;;;;;;;;;;;;;;44.15;12.48;100685.97;4975088;28;6850;-78
2022/08/12 11:19:23;;;;;;;;;;;;;;;44.33;12.28;100696.97;4995851;28;7239;-78
2022/08/12 11:21:51;;;;;;;;;;;;;;;44.40;12.15;100691.84;5011462;28;6987;-77
2022/08/12 11:24:17;;;;;;;;;;;;;;;44.46;12.29;100685.03;5017135;28;6811;-80
2022/08/12 11:26:43;;;;;;;;;;;;;;;44.61;12.35;100683.63;5017244;28;7331;-79
2022/08/12 11:29:09;;;;;;;;;;;;;;;44.91;12.19;100684.47;5014620;28;7181;-79
2022/08/12 11:31:34;;;;;;;;;;;;;;;45.14;12.09;100683.28;5018066;28;6776;-80
2022/08/12 11:34:00;;;;;;;;;;;;;;;45.35;12.32;100675.81;5018282;28;7424;-81
2022/08/12 11:36:26;;;;;;;;;;;;;;;45.66;12.00;100671.97;4997684;28;6945;-79
2022/08/12 11:38:53;;;;;;;;;;;;;;;45.75;11.54;100673.78;5005962;28;8467;-77
2022/08/12 11:41:18;;;;;;;;;;;;;;;45.54;11.54;100674.06;5000924;28;7254;-77
2022/08/12 11:43:44;;;;;;;;;;;;;;;45.42;11.62;100668.00;5014224;28;6788;-77
2022/08/12 11:46:10;;;;;;;;;;;;;;;45.41;11.51;100674.41;5021516;28;7240;-79
2022/08/12 11:48:39;;;;;;;;;;;;;;;45.33;11.74;100666.16;4987538;28;7386;-77
2022/08/12 11:51:06;;;;;;;;;;;;;;;45.36;11.63;100666.69;4984128;28;6860;-77
2022/08/12 11:53:34;;;;;;;;;;;;;;;45.44;11.40;100657.00;5012254;28;6883;-76
2022/08/12 11:56:01;;;;;;;;;;;;;;;45.37;11.35;100656.72;4986452;28;7174;-78
2022/08/12 11:58:26;;;;;;;;;;;;;;;45.12;11.22;100659.09;5014764;28;6804;-75
2022/08/12 12:00:52;;;;;;;;;;;;;;;44.81;11.45;100656.56;5014698;28;6958;-77
2022/08/12 12:03:18;;;;;;;;;;;;;;;44.80;11.29;100658.44;4994472;28;6993;-76
2022/08/12 12:05:44;;;;;;;;;;;;;;;44.86;11.58;100646.19;5012376;28;7001;-76
2022/08/12 12:08:22;;;;;;;;;;;;;;;45.08;11.82;100646.88;5013410;28;7187;-77
2022/08/12 12:10:53;;;;;;;;;;;;;;;45.32;11.32;100653.63;4980377;28;6816;-75
2022/08/12 12:13:19;;;;;;;;;;;;;;;45.41;11.26;100635.66;5000626;28;7330;-77
2022/08/12 12:15:46;;;;;;;;;;;;;;;45.48;11.02;100626.78;5027025;28;7039;-76
2022/08/12 12:18:41;;;;;;;;;;;;;;;45.56;11.29;100633.31;5013473;28;6972;-78
2022/08/12 12:21:08;;;;;;;;;;;;;;;45.48;10.91;100636.78;4972937;28;7264;-75
2022/08/12 12:23:35;;;;;;;;;;;;;;;45.27;10.95;100648.66;4978892;28;6824;-75
2022/08/12 12:26:05;;;;;;;;;;;;;;;45.12;10.78;100647.44;4994198;28;6993;-76
2022/08/12 12:28:32;;;;;;;;;;;;;;;45.00;10.82;100642.19;4982016;28;6808;-75
2022/08/12 12:30:59;;;;;;;;;;;;;;;44.80;10.94;100622.44;4979815;28;7232;-77
2022/08/12 12:33:25;;;;;;;;;;;;;;;44.65;11.07;100638.25;4986696;28;6807;-77
2022/08/12 12:35:51;;;;;;;;;;;;;;;44.56;11.11;100628.28;5016020;28;7940;-77
2022/08/12 12:38:18;;;;;;;;;;;;;;;44.56;11.22;100628.28;5014034;28;7015;-76
2022/08/12 12:40:47;;;;;;;;;;;;;;;44.60;11.20;100625.19;4986260;28;6816;-76
2022/08/12 12:43:15;;;;;;;;;;;;;;;44.57;11.42;100611.97;4993932;28;6970;-75
2022/08/12 12:45:43;;;;;;;;;;;;;;;44.59;11.01;100614.53;5015730;28;6968;-77
2022/08/12 12:48:16;;;;;;;;;;;;;;;44.50;11.07;100614.38;5010914;28;6864;-77
2022/08/12 12:53:42;;;;;;;;;;;;;;;44.31;11.22;100604.44;5010193;28;6803;-77
2022/08/12 12:56:22;;;;;;;;;;;;;;;44.24;10.96;100603.31;5014304;28;7942;-78
2022/08/12 12:58:52;;;;;;;;;;;;;;;44.28;11.17;100590.34;4985489;28;7076;-78
2022/08/12 13:01:24;;;;;;;;;;;;;;;44.40;11.24;100589.22;5014842;28;7195;-77
2022/08/12 13:03:57;;;;;;;;;;;;;;;44.58;11.10;100589.38;4979118;28;8559;-77
2022/08/12 13:06:28;;;;;;;;;;;;;;;44.67;11.33;100590.34;4970918;28;6857;-77
2022/08/12 13:08:59;;;;;;;;;;;;;;;44.68;11.31;100589.34;5017877;28;6998;-78
2022/08/12 13:11:27;;;;;;;;;;;;;;;44.70;11.06;100590.06;5000264;28;7362;-78
2022/08/12 13:13:53;;;;;;;;;;;;;;;44.83;11.20;100587.03;4998025;28;7213;-79
2022/08/12 13:16:20;;;;;;;;;;;;;;;44.90;10.87;100580.03;5027406;28;7431;-75
2022/08/12 13:18:52;;;;;;;;;;;;;;;44.75;10.55;100581.50;5015103;28;7425;-76
2022/08/12 13:21:19;;;;;;;;;;;;;;;44.45;10.64;100581.53;4982866;28;7203;-75
2022/08/12 13:23:48;;;;;;;;;;;;;;;44.18;11.05;100582.28;4995192;28;6984;-77
2022/08/12 13:26:18;;;;;;;;;;;;;;;43.97;10.97;100578.69;4984888;28;7180;-75
2022/08/12 13:28:48;;;;;;;;;;;;;;;43.90;11.07;100576.69;4985436;28;7229;-76
2022/08/12 13:31:16;;;;;;;;;;;;;;;43.84;11.04;100580.81;4983444;28;7000;-74
2022/08/12 13:33:42;;;;;;;;;;;;;;;43.81;10.88;100570.31;5011488;28;6962;-77
2022/08/12 13:36:09;;;;;;;;;;;;;;;43.71;11.00;100572.94;4982923;28;6832;-77
2022/08/12 13:38:49;;;;;;;;;;;;;;;43.71;11.24;100568.41;5011863;28;7099;-77
2022/08/12 13:41:31;;;;;;;;;;;;;;;43.79;10.84;100570.44;4982414;28;6803;-77
2022/08/12 13:44:08;;;;;;;;;;;;;;;43.85;10.94;100569.03;5006535;28;7222;-78
2022/08/12 13:46:35;;;;;;;;;;;;;;;43.89;10.98;100564.19;5011961;28;7221;-77
2022/08/12 13:49:03;;;;;;;;;;;;;;;43.88;10.66;100562.50;5027353;28;6994;-77
2022/08/12 13:51:29;;;;;;;;;;;;;;;43.65;10.83;100563.56;5009012;28;7849;-77
2022/08/12 13:53:54;;;;;;;;;;;;;;;43.33;10.66;100547.56;4996069;28;6970;-78
2022/08/12 13:56:22;;;;;;;;;;;;;;;43.07;10.81;100550.72;5008212;28;6772;-78
2022/08/12 13:58:50;;;;;;;;;;;;;;;42.87;10.99;100546.09;5009354;28;6796;-76
2022/08/12 14:01:19;;;;;;;;;;;;;;;42.77;10.96;100549.72;5023096;28;6887;-78
2022/08/12 14:03:46;;;;;;;;;;;;;;;42.77;11.09;100541.63;4977805;28;7281;-77
2022/08/12 14:06:12;;;;;;;;;;;;;;;42.83;11.13;100530.31;4980900;28;7028;-77
2022/08/12 14:08:38;;;;;;;;;;;;;;;42.82;10.94;100540.25;4990639;28;7003;-76
2022/08/12 14:11:04;;;;;;;;;;;;;;;42.70;11.35;100536.81;5011344;28;6776;-77
2022/08/12 14:13:36;;;;;;;;;;;;;;;42.60;11.31;100542.13;5011697;28;6925;-77
2022/08/12 14:16:02;;;;;;;;;;;;;;;42.37;11.29;100541.38;5009168;28;7128;-75
2022/08/12 14:18:34;;;;;;;;;;;;;;;42.16;11.22;100544.06;4982223;28;7242;-77
2022/08/12 14:21:08;;;;;;;;;;;;;;;42.11;11.51;100532.81;4984073;28;7207;-77
2022/08/12 14:23:37;;;;;;;;;;;;;;;42.17;11.41;100525.06;5009870;28;6938;-75
2022/08/12 14:26:07;;;;;;;;;;;;;;;42.22;11.32;100530.06;5011341;28;7131;-76
2022/08/12 14:28:35;;;;;;;;;;;;;;;42.17;11.41;100530.47;5016195;28;7117;-79
2022/08/12 14:31:11;;;;;;;;;;;;;;;42.09;11.70;100527.56;4982972;28;6800;-78
2022/08/12 14:33:47;;;;;;;;;;;;;;;41.94;11.33;100528.84;5017178;28;6992;-78
2022/08/12 14:36:35;;;;;;;;;;;;;;;41.80;11.32;100525.44;5018086;28;7307;-80
2022/08/12 14:39:03;;;;;;;;;;;;;;;41.77;11.65;100517.63;5015022;28;7318;-80
2022/08/12 14:41:33;;;;;;;;;;;;;;;41.83;11.67;100518.97;4995456;28;8527;-79
2022/08/12 14:43:59;;;;;;;;;;;;;;;41.84;11.94;100521.53;5015155;28;6863;-78
2022/08/12 14:46:26;;;;;;;;;;;;;;;41.81;11.87;100512.84;5008845;28;6975;-78
2022/08/12 14:48:53;;;;;;;;;;;;;;;41.70;11.74;100509.22;4984826;28;6942;-80
2022/08/12 14:51:25;;;;;;;;;;;;;;;41.57;11.91;100506.66;5012024;28;6820;-80
2022/08/12 14:53:51;;;;;;;;;;;;;;;41.50;12.06;100506.31;4965831;28;7442;-80